Time;durP1;ratioP1;P1;durP2;ratioP2;P2;SDS_P1;SDS_P2;PMS_P1;PMS_P2;Temp;Humidity;BMP_temperature;BMP_pressure;BME280_temperature;BME280_humidity;BME280_pressure;Samples;Min_cycle;Max_cycle;Signal;HPM_P1;HPM_P2
2023/03/17 00:01:20;;;;;;;12.20;9.40;;;4.80;96.50;;;;;;6240094;23;20380;-78
2023/03/17 00:03:49;;;;;;;12.90;9.48;;;4.80;95.80;;;;;;6239068;22;20385;-78
2023/03/17 00:06:23;;;;;;;13.38;10.32;;;4.80;95.50;;;;;;6239996;23;20379;-77
2023/03/17 00:08:50;;;;;;;14.93;10.80;;;4.80;96.90;;;;;;6239180;22;20431;-78
2023/03/17 00:11:17;;;;;;;15.25;10.63;;;4.80;97.20;;;;;;6241401;23;20376;-78
2023/03/17 00:13:45;;;;;;;13.50;10.80;;;4.80;96.50;;;;;;6240628;22;20708;-78
2023/03/17 00:16:18;;;;;;;14.75;11.55;;;4.80;97.80;;;;;;6241658;23;20369;-79
2023/03/17 00:18:47;;;;;;;14.93;11.43;;;4.80;96.90;;;;;;6241503;22;20369;-79
2023/03/17 00:21:29;;;;;;;14.88;11.20;;;4.80;97.50;;;;;;6242039;23;20365;-77
2023/03/17 00:23:58;;;;;;;12.07;9.53;;;4.90;96.60;;;;;;6242889;22;20353;-78
2023/03/17 00:26:25;;;;;;;13.57;10.45;;;4.90;96.00;;;;;;6243543;22;20377;-78
2023/03/17 00:28:53;;;;;;;14.07;10.40;;;4.90;96.20;;;;;;6240943;22;20440;-78
2023/03/17 00:31:24;;;;;;;11.60;9.52;;;4.90;96.50;;;;;;6241983;23;20699;-78
2023/03/17 00:33:52;;;;;;;11.65;9.30;;;4.80;95.50;;;;;;6240438;22;20406;-78
2023/03/17 00:36:28;;;;;;;11.40;9.65;;;4.90;95.40;;;;;;6243453;22;20373;-78
2023/03/17 00:38:56;;;;;;;13.07;9.95;;;4.80;95.30;;;;;;6240575;22;20373;-78
2023/03/17 00:41:23;;;;;;;14.57;10.40;;;4.80;95.40;;;;;;6241671;23;20703;-78
2023/03/17 00:43:50;;;;;;;15.05;10.63;;;4.80;96.20;;;;;;6241094;22;20427;-78
2023/03/17 00:46:26;;;;;;;13.57;9.00;;;4.70;96.70;;;;;;6241692;23;20695;-78
2023/03/17 00:48:56;;;;;;;11.32;9.30;;;4.70;96.10;;;;;;6242242;22;21348;-78
2023/03/17 00:51:23;;;;;;;15.05;10.43;;;4.70;95.80;;;;;;6241486;23;20372;-79
2023/03/17 00:53:50;;;;;;;14.10;10.68;;;4.70;96.00;;;;;;6240856;22;20448;-78
2023/03/17 00:56:19;;;;;;;13.50;10.65;;;4.80;97.00;;;;;;6241408;23;20404;-78
2023/03/17 00:58:47;;;;;;;15.00;10.65;;;4.80;96.90;;;;;;6240902;22;20423;-78
2023/03/17 01:01:14;;;;;;;14.70;10.48;;;4.80;97.20;;;;;;6241471;23;20420;-78
2023/03/17 01:03:41;;;;;;;13.77;9.15;;;4.80;96.60;;;;;;6240438;22;20384;-79
2023/03/17 01:06:11;;;;;;;13.40;9.55;;;4.70;96.20;;;;;;6241062;23;20817;-78
2023/03/17 01:08:40;;;;;;;15.82;11.13;;;4.70;95.80;;;;;;6239982;22;20444;-78
2023/03/17 01:11:15;;;;;;;14.68;10.00;;;4.70;95.80;;;;;;6241143;23;20365;-78
2023/03/17 01:13:41;;;;;;;14.10;10.30;;;4.70;95.60;;;;;;6240472;22;20456;-78
2023/03/17 01:16:09;;;;;;;17.13;12.05;;;4.70;95.20;;;;;;6242532;22;20373;-78
2023/03/17 01:18:37;;;;;;;14.80;10.90;;;4.60;95.70;;;;;;6241549;23;20452;-78
2023/03/17 01:21:04;;;;;;;14.90;10.48;;;4.60;95.80;;;;;;6240150;22;20368;-78
2023/03/17 01:23:31;;;;;;;14.75;10.40;;;4.60;95.80;;;;;;6241089;23;20373;-78
2023/03/17 01:25:58;;;;;;;14.93;10.52;;;4.50;95.60;;;;;;6239955;22;20405;-78
2023/03/17 01:28:25;;;;;;;14.02;9.90;;;4.50;95.70;;;;;;6241016;23;20449;-78
2023/03/17 01:30:52;;;;;;;12.07;8.87;;;4.40;95.50;;;;;;6239459;22;20384;-78
2023/03/17 01:33:19;;;;;;;10.95;8.48;;;4.30;95.20;;;;;;6241149;23;20377;-78
2023/03/17 01:35:46;;;;;;;9.23;7.70;;;4.20;95.10;;;;;;6240122;22;20377;-78
2023/03/17 01:38:13;;;;;;;9.57;7.72;;;4.20;95.20;;;;;;6240954;23;20395;-78
2023/03/17 01:40:48;;;;;;;9.48;7.28;;;4.10;95.30;;;;;;6239971;22;20703;-79
2023/03/17 01:43:24;;;;;;;8.57;7.20;;;4.10;95.50;;;;;;6240811;23;20371;-78
2023/03/17 01:46:30;;;;;;;10.35;7.50;;;4.10;95.30;;;;;;6241414;22;20365;-78
2023/03/17 01:49:06;;;;;;;10.85;8.40;;;4.10;95.60;;;;;;6241960;22;20369;-78
2023/03/17 01:51:57;;;;;;;9.38;7.43;;;4.00;96.00;;;;;;6242371;22;20448;-77
2023/03/17 01:54:43;;;;;;;9.05;7.45;;;4.00;96.10;;;;;;6240101;22;20846;-78
2023/03/17 01:57:32;;;;;;;8.25;7.05;;;4.00;95.90;;;;;;6239584;22;20369;-78
2023/03/17 02:00:08;;;;;;;8.52;7.47;;;3.90;96.00;;;;;;6240684;23;20408;-78
2023/03/17 02:02:39;;;;;;;9.02;7.07;;;3.90;95.70;;;;;;6213713;22;20361;-80
